GXA109 KSRQ-KDCA
Flight info
| Callsign | GXA109 |
|---|---|
| Flight time | N/A |
| Altitude | 35000 |
| Route | TIDES1 CAMJO Q99 OGRAE FUUFF WAVES CAPSS4 |
| Aircraft | A320/M-SDE3FGHIRWY/LB1 |
Departure
| Time | 2026-05-05 17:36 |
|---|---|
| Airport | Sarasota Bradenton International Airport (KSRQ) |
Arrival
| Time | N/A |
|---|---|
| Airport | Ronald Reagan Washington National Airport (KDCA) |
| Time | Latitude | Longitude | Altitude | Speed | Heading |
|---|---|---|---|---|---|
| 2026-05-05 17:02 | 27.39033 | -82.55349 | 31 ft | 0 kts | 220° |
| 2026-05-05 17:29 | 27.39048 | -82.55334 | 31 ft | 3 kts | 220° |
| 2026-05-05 17:29 | 27.39063 | -82.55318 | 31 ft | 4 kts | 225° |
| 2026-05-05 17:29 | 27.39081 | -82.55304 | 30 ft | 2 kts | 176° |
| 2026-05-05 17:29 | 27.39100 | -82.55306 | 30 ft | 0 kts | 176° |
| 2026-05-05 17:32 | 27.39099 | -82.55305 | 30 ft | 2 kts | 171° |
| 2026-05-05 17:32 | 27.39102 | -82.55259 | 30 ft | 8 kts | 54° |
| 2026-05-05 17:32 | 27.39145 | -82.55244 | 30 ft | 6 kts | 354° |
| 2026-05-05 17:32 | 27.39187 | -82.55280 | 30 ft | 10 kts | 313° |
| 2026-05-05 17:33 | 27.39234 | -82.55334 | 30 ft | 9 kts | 314° |
| 2026-05-05 17:33 | 27.39273 | -82.55378 | 30 ft | 7 kts | 315° |
| 2026-05-05 17:33 | 27.39322 | -82.55434 | 30 ft | 19 kts | 315° |
| 2026-05-05 17:33 | 27.39457 | -82.55586 | 31 ft | 34 kts | 315° |
| 2026-05-05 17:34 | 27.39633 | -82.55789 | 31 ft | 37 kts | 314° |
| 2026-05-05 17:34 | 27.39811 | -82.55994 | 30 ft | 37 kts | 314° |
| 2026-05-05 17:34 | 27.39989 | -82.56198 | 30 ft | 37 kts | 314° |
| 2026-05-05 17:34 | 27.40167 | -82.56401 | 31 ft | 36 kts | 314° |
| 2026-05-05 17:35 | 27.40330 | -82.56589 | 30 ft | 27 kts | 315° |
| 2026-05-05 17:35 | 27.40421 | -82.56597 | 30 ft | 13 kts | 47° |
| 2026-05-05 17:35 | 27.40390 | -82.56481 | 31 ft | 22 kts | 137° |
| 2026-05-05 17:35 | 27.40259 | -82.56330 | 29 ft | 46 kts | 135° |
| 2026-05-05 17:36 | 27.39829 | -82.55839 | 29 ft | 127 kts | 134° |
| 2026-05-05 17:36 | 27.39064 | -82.54966 | 154 ft | 176 kts | 135° |
| 2026-05-05 17:36 | 27.38200 | -82.54005 | 981 ft | 179 kts | 134° |
| 2026-05-05 17:36 | 27.37304 | -82.53008 | 1857 ft | 185 kts | 133° |
| 2026-05-05 17:37 | 27.36354 | -82.51919 | 2190 ft | 208 kts | 132° |
| 2026-05-05 17:37 | 27.35046 | -82.50999 | 2367 ft | 240 kts | 164° |
| 2026-05-05 17:37 | 27.33312 | -82.50892 | 2855 ft | 259 kts | 186° |
| 2026-05-05 17:37 | 27.31602 | -82.51598 | 3637 ft | 268 kts | 213° |
| 2026-05-05 17:38 | 27.30334 | -82.53132 | 4469 ft | 273 kts | 242° |
| 2026-05-05 17:38 | 27.29873 | -82.55197 | 5336 ft | 277 kts | 271° |
| 2026-05-05 17:38 | 27.30350 | -82.57282 | 6214 ft | 279 kts | 295° |
| 2026-05-05 17:38 | 27.31233 | -82.59224 | 7084 ft | 279 kts | 296° |
| 2026-05-05 17:39 | 27.32122 | -82.61162 | 7909 ft | 279 kts | 296° |
| 2026-05-05 17:39 | 27.33009 | -82.63108 | 8743 ft | 280 kts | 296° |
| 2026-05-05 17:39 | 27.33895 | -82.65064 | 9552 ft | 282 kts | 296° |
| 2026-05-05 17:39 | 27.34784 | -82.67038 | 10288 ft | 284 kts | 296° |
| 2026-05-05 17:40 | 27.35677 | -82.69021 | 11002 ft | 285 kts | 296° |
| 2026-05-05 17:40 | 27.36576 | -82.71015 | 11735 ft | 286 kts | 296° |
| 2026-05-05 17:40 | 27.37485 | -82.73015 | 12458 ft | 288 kts | 298° |
| 2026-05-05 17:40 | 27.38677 | -82.74830 | 13142 ft | 291 kts | 313° |
| 2026-05-05 17:41 | 27.40294 | -82.76222 | 13828 ft | 296 kts | 328° |
| 2026-05-05 17:41 | 27.42190 | -82.77172 | 14429 ft | 299 kts | 334° |
| 2026-05-05 17:41 | 27.44115 | -82.78077 | 15034 ft | 300 kts | 334° |
| 2026-05-05 17:41 | 27.46063 | -82.78933 | 15651 ft | 303 kts | 340° |
| 2026-05-05 17:42 | 27.48143 | -82.79330 | 16102 ft | 317 kts | 353° |
| 2026-05-05 17:42 | 27.50421 | -82.79287 | 16230 ft | 337 kts | 357° |
| 2026-05-05 17:42 | 27.52822 | -82.79200 | 16356 ft | 354 kts | 357° |
| 2026-05-05 17:42 | 27.55336 | -82.79104 | 16481 ft | 369 kts | 357° |
| 2026-05-05 17:43 | 27.57956 | -82.79003 | 16611 ft | 384 kts | 358° |
| 2026-05-05 17:43 | 27.60662 | -82.78924 | 16899 ft | 392 kts | 356° |
| 2026-05-05 17:43 | 27.63405 | -82.78886 | 17373 ft | 396 kts | 356° |
| 2026-05-05 17:43 | 27.66168 | -82.78875 | 17889 ft | 398 kts | 355° |
| 2026-05-05 17:44 | 27.68946 | -82.78876 | 18393 ft | 400 kts | 355° |
| 2026-05-05 17:44 | 27.71739 | -82.78878 | 18823 ft | 402 kts | 355° |
| 2026-05-05 17:44 | 27.74548 | -82.78874 | 19230 ft | 405 kts | 355° |
| 2026-05-05 17:44 | 27.77373 | -82.78862 | 19651 ft | 407 kts | 355° |
| 2026-05-05 17:45 | 27.80215 | -82.78844 | 20093 ft | 410 kts | 355° |
| 2026-05-05 17:45 | 27.83072 | -82.78824 | 20513 ft | 412 kts | 355° |
| 2026-05-05 17:45 | 27.85947 | -82.78804 | 20914 ft | 414 kts | 355° |
| 2026-05-05 17:45 | 27.88838 | -82.78782 | 21329 ft | 417 kts | 355° |
| 2026-05-05 17:46 | 27.91748 | -82.78762 | 21740 ft | 419 kts | 355° |
| 2026-05-05 17:46 | 27.94675 | -82.78743 | 22104 ft | 421 kts | 355° |
| 2026-05-05 17:46 | 27.97609 | -82.78723 | 22449 ft | 423 kts | 355° |
| 2026-05-05 17:46 | 28.00561 | -82.78706 | 22782 ft | 425 kts | 354° |
| 2026-05-05 17:47 | 28.03526 | -82.78689 | 23107 ft | 427 kts | 354° |
| 2026-05-05 17:47 | 28.06505 | -82.78671 | 23419 ft | 429 kts | 354° |
| 2026-05-05 17:47 | 28.09497 | -82.78654 | 23699 ft | 431 kts | 354° |
| 2026-05-05 17:47 | 28.12501 | -82.78637 | 23950 ft | 432 kts | 354° |
| 2026-05-05 17:48 | 28.15476 | -82.78617 | 24195 ft | 434 kts | 354° |
| 2026-05-05 17:48 | 28.18533 | -82.78596 | 24477 ft | 435 kts | 354° |
| 2026-05-05 17:48 | 28.21561 | -82.78576 | 24765 ft | 435 kts | 354° |
| 2026-05-05 17:48 | 28.24593 | -82.78560 | 25034 ft | 436 kts | 354° |
| 2026-05-05 17:49 | 28.27590 | -82.78543 | 25284 ft | 437 kts | 354° |
| 2026-05-05 17:49 | 28.30635 | -82.78524 | 25529 ft | 438 kts | 354° |
| 2026-05-05 17:49 | 28.33687 | -82.78505 | 25774 ft | 439 kts | 354° |
| 2026-05-05 17:49 | 28.36747 | -82.78483 | 26003 ft | 440 kts | 354° |
| 2026-05-05 17:50 | 28.39815 | -82.78462 | 26228 ft | 441 kts | 354° |
| 2026-05-05 17:50 | 28.42895 | -82.78387 | 26453 ft | 444 kts | 356° |
| 2026-05-05 17:50 | 28.45989 | -82.78182 | 26667 ft | 447 kts | 358° |
| 2026-05-05 17:50 | 28.49094 | -82.77886 | 26918 ft | 448 kts | 359° |
| 2026-05-05 17:51 | 28.52201 | -82.77547 | 27154 ft | 449 kts | 359° |
| 2026-05-05 17:51 | 28.55305 | -82.77206 | 27359 ft | 449 kts | 359° |
| 2026-05-05 17:51 | 28.58415 | -82.76882 | 27620 ft | 448 kts | 358° |
| 2026-05-05 17:51 | 28.61516 | -82.76579 | 27909 ft | 447 kts | 358° |
| 2026-05-05 17:52 | 28.64609 | -82.76295 | 28202 ft | 445 kts | 358° |
| 2026-05-05 17:52 | 28.67694 | -82.76020 | 28490 ft | 444 kts | 358° |
| 2026-05-05 17:52 | 28.70772 | -82.75750 | 28782 ft | 443 kts | 358° |
| 2026-05-05 17:52 | 28.73801 | -82.75484 | 29070 ft | 442 kts | 358° |
| 2026-05-05 17:53 | 28.76863 | -82.75216 | 29402 ft | 441 kts | 358° |
| 2026-05-05 17:53 | 28.79922 | -82.74946 | 29663 ft | 441 kts | 358° |
| 2026-05-05 17:53 | 28.82982 | -82.74672 | 29948 ft | 441 kts | 358° |
| 2026-05-05 17:53 | 28.86038 | -82.74397 | 30227 ft | 440 kts | 357° |
| 2026-05-05 17:54 | 28.89086 | -82.74122 | 30494 ft | 439 kts | 357° |
| 2026-05-05 17:54 | 28.92123 | -82.73847 | 30777 ft | 437 kts | 357° |
| 2026-05-05 17:54 | 28.95146 | -82.73571 | 31074 ft | 435 kts | 357° |
| 2026-05-05 17:54 | 28.98155 | -82.73293 | 31366 ft | 433 kts | 357° |
| 2026-05-05 17:55 | 29.01141 | -82.73018 | 31666 ft | 430 kts | 357° |
| 2026-05-05 17:55 | 29.04120 | -82.72749 | 31958 ft | 428 kts | 357° |
| 2026-05-05 17:55 | 29.07090 | -82.72484 | 32279 ft | 426 kts | 356° |
| 2026-05-05 17:55 | 29.10039 | -82.72219 | 32579 ft | 424 kts | 356° |
| 2026-05-05 17:56 | 29.12971 | -82.71950 | 32887 ft | 422 kts | 356° |
| 2026-05-05 17:56 | 29.15888 | -82.71679 | 33187 ft | 419 kts | 356° |
| 2026-05-05 17:56 | 29.18790 | -82.71411 | 33484 ft | 417 kts | 356° |
| 2026-05-05 17:56 | 29.21676 | -82.71146 | 33789 ft | 415 kts | 356° |
| 2026-05-05 17:57 | 29.24541 | -82.70883 | 34087 ft | 413 kts | 356° |
| 2026-05-05 17:57 | 29.27365 | -82.70627 | 34342 ft | 411 kts | 356° |
| 2026-05-05 17:57 | 29.30210 | -82.70372 | 34587 ft | 409 kts | 356° |
| 2026-05-05 17:57 | 29.33045 | -82.70117 | 34817 ft | 408 kts | 356° |
| 2026-05-05 17:58 | 29.35876 | -82.69861 | 34981 ft | 408 kts | 355° |
| 2026-05-05 17:58 | 29.41550 | -82.69351 | 35009 ft | 409 kts | 355° |
| 2026-05-05 17:59 | 29.47212 | -82.69128 | 35008 ft | 405 kts | 352° |
| 2026-05-05 17:59 | 29.52845 | -82.69182 | 35009 ft | 405 kts | 351° |
| 2026-05-05 18:00 | 29.58481 | -82.69232 | 35014 ft | 405 kts | 351° |
| 2026-05-05 18:00 | 29.64130 | -82.69213 | 35043 ft | 406 kts | 352° |
| 2026-05-05 18:01 | 29.69779 | -82.69162 | 35036 ft | 406 kts | 352° |
| 2026-05-05 18:01 | 29.75422 | -82.69117 | 35035 ft | 405 kts | 352° |
| 2026-05-05 18:02 | 29.81062 | -82.69078 | 35030 ft | 405 kts | 352° |
| 2026-05-05 18:02 | 29.86700 | -82.69043 | 35032 ft | 405 kts | 352° |
| 2026-05-05 18:03 | 29.92302 | -82.69006 | 35052 ft | 405 kts | 352° |
| 2026-05-05 18:03 | 29.97941 | -82.68973 | 35049 ft | 405 kts | 352° |
| 2026-05-05 18:04 | 30.03582 | -82.68938 | 35044 ft | 405 kts | 352° |
| 2026-05-05 18:04 | 30.09230 | -82.68900 | 35043 ft | 405 kts | 352° |
| 2026-05-05 18:05 | 30.14873 | -82.68865 | 35040 ft | 406 kts | 352° |
| 2026-05-05 18:05 | 30.20518 | -82.68834 | 35067 ft | 406 kts | 351° |
| 2026-05-05 18:06 | 30.26153 | -82.68803 | 35082 ft | 405 kts | 351° |
| 2026-05-05 18:06 | 30.31779 | -82.68768 | 35097 ft | 405 kts | 351° |
| 2026-05-05 18:07 | 30.37412 | -82.68725 | 35103 ft | 405 kts | 352° |
| 2026-05-05 18:07 | 30.43014 | -82.68683 | 35114 ft | 405 kts | 351° |
| 2026-05-05 18:08 | 30.48650 | -82.68653 | 35109 ft | 404 kts | 351° |
| 2026-05-05 18:08 | 30.54317 | -82.67932 | 35101 ft | 416 kts | 0° |
| 2026-05-05 18:09 | 30.60008 | -82.66716 | 35096 ft | 416 kts | 0° |
| 2026-05-05 18:09 | 30.64739 | -82.65699 | 35094 ft | 416 kts | 0° |
| 2026-05-05 18:10 | 30.70420 | -82.64480 | 35093 ft | 415 kts | 0° |
| 2026-05-05 18:10 | 30.76112 | -82.63264 | 35096 ft | 415 kts | 0° |
| 2026-05-05 18:11 | 30.81791 | -82.62057 | 35088 ft | 415 kts | 0° |
| 2026-05-05 18:11 | 30.87484 | -82.60839 | 35066 ft | 416 kts | 0° |
| 2026-05-05 18:12 | 30.93173 | -82.59617 | 35064 ft | 416 kts | 0° |
| 2026-05-05 18:12 | 30.98866 | -82.58399 | 35028 ft | 416 kts | 0° |
| 2026-05-05 18:13 | 31.04561 | -82.57175 | 35068 ft | 416 kts | 0° |
| 2026-05-05 18:13 | 31.10215 | -82.55370 | 35057 ft | 436 kts | 14° |
| 2026-05-05 18:14 | 31.15625 | -82.52119 | 35057 ft | 441 kts | 17° |
| 2026-05-05 18:14 | 31.21067 | -82.48793 | 35033 ft | 442 kts | 17° |
| 2026-05-05 18:15 | 31.26515 | -82.45469 | 35032 ft | 442 kts | 16° |
| 2026-05-05 18:15 | 31.31965 | -82.42151 | 35059 ft | 442 kts | 16° |
| 2026-05-05 18:16 | 31.37420 | -82.38834 | 35053 ft | 442 kts | 16° |
| 2026-05-05 18:16 | 31.42873 | -82.35512 | 35040 ft | 442 kts | 16° |
| 2026-05-05 18:17 | 31.48316 | -82.32187 | 35031 ft | 441 kts | 16° |
| 2026-05-05 18:17 | 31.53762 | -82.28854 | 35018 ft | 442 kts | 16° |
| 2026-05-05 18:18 | 31.59206 | -82.25512 | 35044 ft | 441 kts | 16° |
| 2026-05-05 18:18 | 31.64648 | -82.22181 | 35031 ft | 441 kts | 16° |
| 2026-05-05 18:19 | 31.70086 | -82.18850 | 35012 ft | 441 kts | 16° |
| 2026-05-05 18:19 | 31.75517 | -82.15513 | 35009 ft | 441 kts | 16° |
| 2026-05-05 18:20 | 31.80958 | -82.12158 | 35007 ft | 441 kts | 16° |
| 2026-05-05 18:20 | 31.86354 | -82.08818 | 35052 ft | 441 kts | 16° |
| 2026-05-05 18:21 | 31.91812 | -82.05440 | 35042 ft | 440 kts | 16° |
| 2026-05-05 18:21 | 31.97204 | -82.02108 | 35039 ft | 440 kts | 15° |
| 2026-05-05 18:22 | 32.02613 | -81.98766 | 35029 ft | 439 kts | 15° |
| 2026-05-05 18:22 | 32.08027 | -81.95416 | 35027 ft | 440 kts | 16° |
| 2026-05-05 18:23 | 32.13444 | -81.92051 | 35051 ft | 439 kts | 15° |
| 2026-05-05 18:23 | 32.18857 | -81.88762 | 35045 ft | 437 kts | 14° |
| 2026-05-05 18:24 | 32.24302 | -81.85608 | 35037 ft | 435 kts | 14° |
| 2026-05-05 18:24 | 32.29745 | -81.82461 | 35033 ft | 436 kts | 14° |
| 2026-05-05 18:25 | 32.35178 | -81.79281 | 35023 ft | 436 kts | 14° |
| 2026-05-05 18:25 | 32.40605 | -81.76083 | 35022 ft | 435 kts | 14° |
| 2026-05-05 18:26 | 32.46023 | -81.72881 | 35012 ft | 435 kts | 14° |
| 2026-05-05 18:26 | 32.51404 | -81.69703 | 35012 ft | 435 kts | 14° |
| 2026-05-05 18:27 | 32.56826 | -81.66497 | 35041 ft | 435 kts | 14° |
| 2026-05-05 18:27 | 32.62247 | -81.63288 | 35078 ft | 435 kts | 15° |
| 2026-05-05 18:28 | 32.70350 | -81.58486 | 35051 ft | 434 kts | 15° |
| 2026-05-05 18:28 | 32.75748 | -81.55275 | 35012 ft | 434 kts | 15° |
| 2026-05-05 18:29 | 32.81156 | -81.52058 | 35015 ft | 434 kts | 15° |
| 2026-05-05 18:29 | 32.86560 | -81.48845 | 35019 ft | 434 kts | 15° |
| 2026-05-05 18:30 | 32.91930 | -81.45641 | 35037 ft | 435 kts | 15° |
| 2026-05-05 18:30 | 32.97332 | -81.42408 | 35032 ft | 435 kts | 15° |
| 2026-05-05 18:31 | 33.02744 | -81.39168 | 35030 ft | 435 kts | 15° |
| 2026-05-05 18:31 | 33.08159 | -81.35923 | 35029 ft | 436 kts | 15° |
| 2026-05-05 18:32 | 33.13575 | -81.32677 | 35033 ft | 436 kts | 15° |
| 2026-05-05 18:32 | 33.18995 | -81.29428 | 35035 ft | 436 kts | 15° |
| 2026-05-05 18:33 | 33.24412 | -81.26169 | 35049 ft | 436 kts | 16° |
| 2026-05-05 18:33 | 33.29821 | -81.22907 | 35045 ft | 435 kts | 16° |
| 2026-05-05 18:34 | 33.35189 | -81.19672 | 35041 ft | 435 kts | 16° |
| 2026-05-05 18:34 | 33.40590 | -81.16411 | 35044 ft | 435 kts | 16° |
| 2026-05-05 18:35 | 33.45990 | -81.13141 | 35034 ft | 435 kts | 16° |
| 2026-05-05 18:35 | 33.51392 | -81.09866 | 35029 ft | 435 kts | 16° |
| 2026-05-05 18:36 | 33.56795 | -81.06585 | 35025 ft | 435 kts | 16° |
| 2026-05-05 18:36 | 33.62201 | -81.03308 | 35023 ft | 435 kts | 16° |
| 2026-05-05 18:37 | 33.67600 | -81.00031 | 35030 ft | 434 kts | 17° |
| 2026-05-05 18:37 | 33.72986 | -80.96747 | 35015 ft | 434 kts | 17° |
| 2026-05-05 18:38 | 33.78373 | -80.93468 | 35003 ft | 434 kts | 17° |
| 2026-05-05 18:38 | 33.83723 | -80.90202 | 35020 ft | 434 kts | 17° |
| 2026-05-05 18:39 | 33.86326 | -80.88268 | 35015 ft | 447 kts | 27° |
| 2026-05-05 18:39 | 33.88786 | -80.85963 | 35029 ft | 448 kts | 27° |
| 2026-05-05 18:39 | 33.93681 | -80.81358 | 35013 ft | 446 kts | 27° |
| 2026-05-05 18:40 | 33.98572 | -80.76775 | 35012 ft | 446 kts | 27° |
| 2026-05-05 18:40 | 34.03472 | -80.72192 | 35011 ft | 446 kts | 27° |
| 2026-05-05 18:41 | 34.08364 | -80.67587 | 35010 ft | 446 kts | 27° |
| 2026-05-05 18:41 | 34.13229 | -80.63000 | 35044 ft | 446 kts | 27° |
| 2026-05-05 18:42 | 34.18120 | -80.58382 | 35059 ft | 446 kts | 27° |
| 2026-05-05 18:42 | 34.23009 | -80.53759 | 35060 ft | 446 kts | 27° |
| 2026-05-05 18:43 | 34.27890 | -80.49144 | 35066 ft | 444 kts | 27° |
| 2026-05-05 18:43 | 34.32798 | -80.44618 | 35052 ft | 442 kts | 27° |
| 2026-05-05 18:44 | 34.37704 | -80.40137 | 35044 ft | 441 kts | 27° |
| 2026-05-05 18:44 | 34.42582 | -80.35647 | 35026 ft | 440 kts | 27° |
| 2026-05-05 18:45 | 34.47451 | -80.31136 | 35024 ft | 441 kts | 27° |
| 2026-05-05 18:45 | 34.52320 | -80.26618 | 35025 ft | 441 kts | 27° |
| 2026-05-05 18:46 | 34.57157 | -80.22128 | 35021 ft | 441 kts | 27° |
| 2026-05-05 18:46 | 34.62025 | -80.17596 | 35037 ft | 441 kts | 27° |
| 2026-05-05 18:47 | 34.66889 | -80.13059 | 35043 ft | 440 kts | 27° |
| 2026-05-05 18:47 | 34.71746 | -80.08547 | 35036 ft | 439 kts | 27° |
| 2026-05-05 18:48 | 34.76610 | -80.04032 | 35031 ft | 439 kts | 27° |
| 2026-05-05 18:48 | 34.81460 | -79.99507 | 35027 ft | 439 kts | 27° |
| 2026-05-05 18:49 | 34.86354 | -79.95112 | 35047 ft | 437 kts | 25° |
| 2026-05-05 18:49 | 34.91295 | -79.90814 | 35043 ft | 436 kts | 25° |
| 2026-05-05 18:50 | 34.96230 | -79.86501 | 35034 ft | 437 kts | 25° |
| 2026-05-05 18:50 | 35.01150 | -79.82147 | 35028 ft | 437 kts | 26° |
| 2026-05-05 18:51 | 35.06033 | -79.77806 | 35031 ft | 437 kts | 26° |
| 2026-05-05 18:51 | 35.10942 | -79.73440 | 35032 ft | 436 kts | 26° |
| 2026-05-05 18:52 | 35.15849 | -79.69082 | 34997 ft | 436 kts | 26° |
| 2026-05-05 18:52 | 35.20780 | -79.64809 | 35021 ft | 434 kts | 25° |
| 2026-05-05 18:53 | 35.25741 | -79.60604 | 35023 ft | 434 kts | 25° |
| 2026-05-05 18:53 | 35.30702 | -79.56400 | 35062 ft | 434 kts | 25° |
| 2026-05-05 18:54 | 35.35626 | -79.52187 | 35041 ft | 435 kts | 25° |
| 2026-05-05 18:54 | 35.40581 | -79.47919 | 35026 ft | 436 kts | 25° |
| 2026-05-05 18:55 | 35.45539 | -79.43646 | 35015 ft | 436 kts | 25° |
| 2026-05-05 18:55 | 35.50506 | -79.39367 | 35000 ft | 437 kts | 25° |
| 2026-05-05 18:56 | 35.55482 | -79.35083 | 34998 ft | 437 kts | 25° |
| 2026-05-05 18:56 | 35.60459 | -79.30787 | 35000 ft | 437 kts | 25° |
| 2026-05-05 18:57 | 35.65438 | -79.26481 | 35001 ft | 438 kts | 25° |
| 2026-05-05 18:57 | 35.70415 | -79.22163 | 35002 ft | 438 kts | 25° |
| 2026-05-05 18:58 | 35.75311 | -79.17655 | 34996 ft | 447 kts | 34° |
| 2026-05-05 18:58 | 35.79785 | -79.12266 | 34999 ft | 450 kts | 34° |
| 2026-05-05 18:59 | 35.84232 | -79.06886 | 34992 ft | 451 kts | 34° |
| 2026-05-05 18:59 | 35.88708 | -79.01458 | 35001 ft | 451 kts | 34° |
| 2026-05-05 19:00 | 35.93176 | -78.96030 | 35009 ft | 451 kts | 34° |
| 2026-05-05 19:00 | 35.97639 | -78.90589 | 35006 ft | 451 kts | 34° |
| 2026-05-05 19:01 | 36.02105 | -78.85152 | 35024 ft | 451 kts | 34° |
| 2026-05-05 19:01 | 36.06575 | -78.79706 | 35008 ft | 451 kts | 34° |
| 2026-05-05 19:02 | 36.11041 | -78.74250 | 34991 ft | 451 kts | 34° |
| 2026-05-05 19:02 | 36.15501 | -78.68788 | 34992 ft | 452 kts | 34° |
| 2026-05-05 19:03 | 36.19959 | -78.63317 | 34999 ft | 451 kts | 34° |
| 2026-05-05 19:03 | 36.24380 | -78.57886 | 35020 ft | 451 kts | 34° |
| 2026-05-05 19:04 | 36.28826 | -78.52409 | 35010 ft | 451 kts | 34° |
| 2026-05-05 19:04 | 36.33274 | -78.46936 | 35006 ft | 450 kts | 34° |
| 2026-05-05 19:05 | 36.37718 | -78.41453 | 35002 ft | 451 kts | 34° |
| 2026-05-05 19:05 | 36.42296 | -78.36254 | 35006 ft | 437 kts | 25° |
| 2026-05-05 19:06 | 36.46535 | -78.32933 | 34987 ft | 433 kts | 22° |
| 2026-05-05 19:06 | 36.51658 | -78.28978 | 34961 ft | 434 kts | 22° |
| 2026-05-05 19:07 | 36.56785 | -78.25012 | 34990 ft | 434 kts | 22° |
| 2026-05-05 19:07 | 36.61916 | -78.21034 | 35006 ft | 434 kts | 22° |